createdAt,value
2018-12-25T00:02:05.405Z,14.30
2018-12-25T00:04:33.878Z,15.00
2018-12-25T00:07:02.374Z,15.03
2018-12-25T00:09:30.863Z,16.20
2018-12-25T00:11:59.365Z,15.90
2018-12-25T00:14:27.856Z,18.03
2018-12-25T00:16:56.352Z,15.70
2018-12-25T00:19:24.833Z,15.30
2018-12-25T00:21:53.318Z,14.87
2018-12-25T00:24:22.041Z,14.70
2018-12-25T00:26:50.528Z,11.87
2018-12-25T00:29:18.995Z,13.70
2018-12-25T00:31:47.476Z,17.27
2018-12-25T00:34:15.964Z,17.67
2018-12-25T00:36:44.441Z,19.00
2018-12-25T00:39:13.170Z,17.83
2018-12-25T00:41:41.651Z,15.50
2018-12-25T00:44:10.372Z,15.10
2018-12-25T00:46:38.855Z,14.87
2018-12-25T00:49:14.585Z,19.57
2018-12-25T00:51:37.550Z,16.93
2018-12-25T00:54:06.044Z,14.17
2018-12-25T00:56:53.856Z,15.43
2018-12-25T00:59:22.357Z,18.70
2018-12-25T01:01:50.833Z,15.33
2018-12-25T01:04:19.327Z,17.70
2018-12-25T01:06:47.808Z,14.67
2018-12-25T01:09:16.292Z,17.50
2018-12-25T01:11:44.768Z,17.80
2018-12-25T01:14:13.247Z,20.43
2018-12-25T01:16:41.732Z,24.33
2018-12-25T01:19:10.461Z,21.10
2018-12-25T01:21:38.969Z,17.33
2018-12-25T01:24:07.464Z,19.03
2018-12-25T01:26:35.944Z,17.33
2018-12-25T01:29:04.443Z,19.27
2018-12-25T01:31:32.923Z,17.00
2018-12-25T01:34:01.414Z,17.60
2018-12-25T01:36:29.896Z,17.03
2018-12-25T01:38:58.391Z,20.37
2018-12-25T01:41:26.878Z,19.97
2018-12-25T01:43:55.369Z,18.77
2018-12-25T01:46:23.856Z,23.13
2018-12-25T01:48:52.363Z,21.77
2018-12-25T01:51:20.851Z,22.87
2018-12-25T01:53:49.356Z,21.87
2018-12-25T01:56:17.834Z,18.80
2018-12-25T01:58:46.323Z,20.23
2018-12-25T02:01:14.815Z,19.30
2018-12-25T02:03:43.531Z,17.73
2018-12-25T02:06:12.017Z,17.73
2018-12-25T02:08:40.506Z,15.20
2018-12-25T02:11:09.021Z,17.70
2018-12-25T02:13:37.733Z,16.33
2018-12-25T02:16:06.219Z,14.67
2018-12-25T02:18:34.704Z,18.83
2018-12-25T02:21:03.214Z,17.33
2018-12-25T02:23:31.749Z,15.97
2018-12-25T02:26:00.242Z,14.70
2018-12-25T02:28:28.725Z,18.70
2018-12-25T02:30:57.207Z,16.37
2018-12-25T02:33:25.688Z,14.43
2018-12-25T02:35:54.179Z,14.33
2018-12-25T02:38:22.653Z,16.47
2018-12-25T02:40:51.157Z,15.07
2018-12-25T02:43:19.849Z,14.20
2018-12-25T02:45:48.349Z,17.60
2018-12-25T02:48:16.835Z,15.83
2018-12-25T02:50:45.317Z,23.20
2018-12-25T02:53:13.811Z,15.00
2018-12-25T02:55:42.304Z,19.37
2018-12-25T02:58:11.036Z,15.27
2018-12-25T03:00:39.585Z,15.17
2018-12-25T03:03:08.075Z,17.37
2018-12-25T03:05:36.560Z,16.90
2018-12-25T03:08:05.096Z,15.30
2018-12-25T03:10:33.552Z,16.50
2018-12-25T03:13:02.055Z,17.90
2018-12-25T03:15:30.538Z,15.27
2018-12-25T03:17:59.032Z,17.37
2018-12-25T03:20:27.516Z,16.67
2018-12-25T03:22:56.245Z,15.73
2018-12-25T03:25:44.113Z,15.33
2018-12-25T03:28:14.573Z,14.63
2018-12-25T03:30:43.108Z,16.20
2018-12-25T03:33:11.591Z,16.43
2018-12-25T03:35:40.073Z,15.37
2018-12-25T03:38:08.555Z,16.27
2018-12-25T03:40:37.036Z,15.43
2018-12-25T03:43:05.763Z,18.73
2018-12-25T03:45:34.243Z,19.47
2018-12-25T03:48:02.747Z,15.00
2018-12-25T03:50:31.463Z,14.97
2018-12-25T03:52:59.974Z,16.77
2018-12-25T03:55:28.473Z,22.00
2018-12-25T03:57:56.951Z,21.30
2018-12-25T04:00:25.485Z,19.80
2018-12-25T04:02:53.950Z,19.80
2018-12-25T04:05:22.431Z,16.57
2018-12-25T04:07:50.921Z,21.27
2018-12-25T04:10:19.409Z,19.20
2018-12-25T04:12:47.884Z,16.47
2018-12-25T04:15:16.616Z,18.30
2018-12-25T04:17:45.095Z,16.43
2018-12-25T04:20:19.742Z,15.40
2018-12-25T04:22:43.781Z,14.50
2018-12-25T04:25:12.284Z,14.43
2018-12-25T04:27:40.789Z,14.20
2018-12-25T04:30:09.270Z,17.03
2018-12-25T04:32:37.758Z,15.63
2018-12-25T04:35:06.235Z,15.17
2018-12-25T04:37:34.734Z,15.17
2018-12-25T04:40:03.278Z,13.77
2018-12-25T04:42:31.762Z,14.43
2018-12-25T04:45:00.249Z,17.40
2018-12-25T04:47:28.743Z,18.37
2018-12-25T04:49:57.225Z,21.73
2018-12-25T04:52:25.709Z,18.60
2018-12-25T04:54:54.214Z,18.30
2018-12-25T04:57:22.703Z,18.40
2018-12-25T04:59:51.191Z,19.77
2018-12-25T05:02:19.670Z,16.37
2018-12-25T05:04:48.166Z,19.03
2018-12-25T05:07:16.645Z,18.83
2018-12-25T05:09:45.125Z,15.60
2018-12-25T05:12:13.611Z,17.47
2018-12-25T05:14:42.104Z,17.23
2018-12-25T05:17:10.580Z,17.53
2018-12-25T05:19:39.089Z,15.30
2018-12-25T05:22:07.567Z,17.47
2018-12-25T05:24:36.061Z,15.23
2018-12-25T05:27:04.534Z,14.80
2018-12-25T05:29:33.027Z,17.70
2018-12-25T05:32:01.501Z,14.00
2018-12-25T05:34:29.985Z,13.37
2018-12-25T05:36:58.471Z,14.10
2018-12-25T05:39:26.953Z,14.00
2018-12-25T05:41:55.456Z,14.70
2018-12-25T05:44:23.931Z,17.30
2018-12-25T05:46:52.430Z,19.80
2018-12-25T05:49:20.915Z,19.20
2018-12-25T05:51:49.412Z,18.73
2018-12-25T05:54:37.232Z,16.43
2018-12-25T05:57:05.961Z,15.50
2018-12-25T05:59:34.449Z,16.00
2018-12-25T06:02:02.935Z,15.73
2018-12-25T06:04:31.406Z,16.03
2018-12-25T06:06:59.898Z,17.63
2018-12-25T06:09:28.625Z,16.00
2018-12-25T06:11:57.116Z,15.37
2018-12-25T06:14:25.601Z,14.17
2018-12-25T06:16:54.092Z,13.57
2018-12-25T06:19:22.653Z,15.27
2018-12-25T06:21:51.128Z,14.17
2018-12-25T06:24:19.625Z,14.50
2018-12-25T06:26:48.111Z,15.27
2018-12-25T06:29:16.605Z,16.30
2018-12-25T06:31:45.085Z,16.80
2018-12-25T06:34:13.572Z,17.13
2018-12-25T06:36:42.049Z,17.47
2018-12-25T06:39:10.539Z,15.73
2018-12-25T06:41:39.016Z,20.77
2018-12-25T06:44:07.488Z,20.30
2018-12-25T06:46:35.990Z,20.03
2018-12-25T06:49:04.473Z,17.63
2018-12-25T06:51:32.966Z,19.00
2018-12-25T06:54:01.452Z,16.23
2018-12-25T06:56:30.015Z,16.53
2018-12-25T06:59:00.150Z,16.93
2018-12-25T07:01:31.814Z,15.90
2018-12-25T07:04:00.300Z,13.90
2018-12-25T07:06:28.956Z,16.70
2018-12-25T07:08:57.360Z,16.97
2018-12-25T07:11:25.854Z,15.37
2018-12-25T07:13:57.421Z,17.33
2018-12-25T07:16:25.827Z,16.27
2018-12-25T07:18:55.244Z,16.80
2018-12-25T07:21:23.730Z,16.00
2018-12-25T07:23:52.218Z,16.47
2018-12-25T07:26:20.708Z,15.60
2018-12-25T07:28:49.206Z,17.13
2018-12-25T07:31:17.694Z,17.80
2018-12-25T07:33:49.380Z,20.27
2018-12-25T07:36:17.927Z,16.63
2018-12-25T07:38:49.324Z,16.20
2018-12-25T07:41:18.827Z,17.20
2018-12-25T07:43:47.305Z,17.17
2018-12-25T07:46:15.802Z,19.30
2018-12-25T07:48:44.270Z,14.10
2018-12-25T07:51:20.507Z,16.07
2018-12-25T07:53:42.972Z,16.17
2018-12-25T07:56:11.492Z,15.87
2018-12-25T07:58:39.980Z,15.10
2018-12-25T08:01:09.451Z,14.93
2018-12-25T08:03:38.879Z,13.43
2018-12-25T08:06:07.379Z,12.73
2018-12-25T08:08:35.880Z,18.30
2018-12-25T08:11:04.366Z,15.40
2018-12-25T08:13:32.868Z,15.00
2018-12-25T08:16:01.346Z,15.07
2018-12-25T08:18:29.908Z,19.87
2018-12-25T08:20:58.629Z,20.33
2018-12-25T08:23:27.114Z,17.13
2018-12-25T08:25:55.607Z,15.97
2018-12-25T08:28:24.104Z,15.67
2018-12-25T08:30:52.883Z,14.03
2018-12-25T08:33:21.376Z,15.17
2018-12-25T08:35:52.456Z,15.37
2018-12-25T08:38:20.944Z,14.27
2018-12-25T08:40:49.415Z,14.40
2018-12-25T08:43:17.899Z,16.43
2018-12-25T08:45:46.384Z,13.47
2018-12-25T08:48:14.868Z,16.00
2018-12-25T08:50:43.355Z,14.27
2018-12-25T08:53:11.828Z,14.10
2018-12-25T08:55:40.317Z,14.03
2018-12-25T08:58:08.788Z,12.80
2018-12-25T09:00:38.227Z,14.80
2018-12-25T09:03:06.703Z,14.93
2018-12-25T09:05:35.195Z,13.97
2018-12-25T09:08:03.671Z,15.10
2018-12-25T09:10:32.199Z,14.83
2018-12-25T09:13:00.909Z,14.17
2018-12-25T09:15:29.691Z,13.00
2018-12-25T09:17:58.174Z,11.77
2018-12-25T09:20:26.657Z,14.67
2018-12-25T09:22:56.120Z,15.93
2018-12-25T09:25:24.604Z,14.80
2018-12-25T09:27:53.114Z,14.33
2018-12-25T09:30:21.609Z,13.80
2018-12-25T09:32:50.101Z,15.43
2018-12-25T09:35:18.593Z,14.10
2018-12-25T09:37:47.068Z,15.70
2018-12-25T09:40:15.547Z,15.60
2018-12-25T09:42:44.046Z,16.30
2018-12-25T09:45:12.557Z,14.20
2018-12-25T09:47:42.032Z,15.10
2018-12-25T09:50:10.520Z,16.63
2018-12-25T09:53:23.679Z,14.53
2018-12-25T09:55:52.065Z,14.87
2018-12-25T09:58:20.466Z,14.10
2018-12-25T10:00:48.854Z,11.47
2018-12-25T10:03:17.227Z,14.23
2018-12-25T10:05:45.611Z,13.70
2018-12-25T10:08:13.987Z,15.23
2018-12-25T10:10:45.044Z,14.93
2018-12-25T10:13:19.511Z,16.47
2018-12-25T10:15:47.897Z,14.40
2018-12-25T10:18:16.303Z,14.00
2018-12-25T10:20:44.688Z,12.90
2018-12-25T10:23:14.021Z,14.17
2018-12-25T10:25:42.648Z,13.70
2018-12-25T10:28:11.020Z,12.43
2018-12-25T10:30:42.436Z,11.80
2018-12-25T10:33:10.834Z,14.80
2018-12-25T10:35:39.203Z,13.60
2018-12-25T10:38:07.648Z,12.17
2018-12-25T10:40:36.284Z,15.53
2018-12-25T10:43:04.681Z,13.10
2018-12-25T10:45:33.062Z,12.87
2018-12-25T10:48:01.515Z,14.33
2018-12-25T10:50:29.847Z,13.07
2018-12-25T10:53:02.317Z,12.80
2018-12-25T10:55:30.756Z,13.17
2018-12-25T10:58:00.097Z,11.40
2018-12-25T11:00:39.352Z,13.87
2018-12-25T11:03:07.729Z,13.17
2018-12-25T11:05:37.192Z,12.70
2018-12-25T11:08:08.495Z,13.53
2018-12-25T11:10:36.891Z,13.57
2018-12-25T11:13:05.255Z,13.93
2018-12-25T11:15:33.842Z,14.47
2018-12-25T11:18:02.210Z,13.57
2018-12-25T11:20:30.859Z,15.83
2018-12-25T11:22:59.228Z,14.80
2018-12-25T11:25:29.941Z,13.80
2018-12-25T11:27:58.317Z,15.57
2018-12-25T11:30:26.711Z,14.73
2018-12-25T11:32:55.100Z,23.03
2018-12-25T11:35:23.505Z,18.40
2018-12-25T11:37:51.880Z,16.97
2018-12-25T11:40:20.271Z,14.90
2018-12-25T11:42:49.578Z,13.93
2018-12-25T11:45:17.990Z,16.10
2018-12-25T11:47:51.026Z,15.00
2018-12-25T11:50:19.666Z,14.07
2018-12-25T11:52:49.997Z,15.33
2018-12-25T11:55:18.369Z,14.33
2018-12-25T11:57:46.754Z,12.80
2018-12-25T12:00:15.131Z,12.37
2018-12-25T12:02:52.819Z,13.73
2018-12-25T12:05:21.190Z,14.67
2018-12-25T12:07:49.581Z,16.60
2018-12-25T12:10:17.959Z,14.37
2018-12-25T12:12:46.335Z,11.93
2018-12-25T12:15:14.713Z,13.37
2018-12-25T12:17:43.101Z,14.53
2018-12-25T12:20:11.543Z,13.83
2018-12-25T12:22:39.979Z,14.60
2018-12-25T12:25:11.637Z,15.70
2018-12-25T12:27:39.931Z,15.50
2018-12-25T12:30:08.384Z,14.50
2018-12-25T12:32:36.764Z,15.63
2018-12-25T12:35:05.487Z,14.40
2018-12-25T12:37:33.861Z,16.47
2018-12-25T12:40:02.271Z,15.40
2018-12-25T12:42:30.647Z,17.93
2018-12-25T12:44:59.028Z,17.23
2018-12-25T12:47:27.401Z,17.77
2018-12-25T12:49:55.839Z,16.07
2018-12-25T12:52:26.103Z,16.87
2018-12-25T12:54:57.666Z,17.10
2018-12-25T12:57:26.058Z,16.30
2018-12-25T12:59:54.441Z,15.83
2018-12-25T13:02:22.861Z,17.57
2018-12-25T13:04:51.502Z,16.80
2018-12-25T13:07:19.888Z,15.07
2018-12-25T13:09:48.266Z,14.03
2018-12-25T13:12:16.657Z,15.07
2018-12-25T13:14:45.053Z,15.50
2018-12-25T13:17:15.432Z,21.03
2018-12-25T13:19:47.791Z,16.27
2018-12-25T13:22:16.175Z,13.67
2018-12-25T13:24:44.558Z,12.70
2018-12-25T13:27:12.938Z,14.53
2018-12-25T13:29:41.311Z,12.77
2018-12-25T13:32:09.694Z,13.33
2018-12-25T13:34:38.978Z,16.17
2018-12-25T13:37:07.349Z,14.60
2018-12-25T13:39:35.734Z,12.47
2018-12-25T13:42:05.065Z,12.83
2018-12-25T13:44:33.441Z,13.00
2018-12-25T13:47:01.821Z,13.00
2018-12-25T13:49:30.206Z,10.47
2018-12-25T13:51:58.583Z,12.90
2018-12-25T13:54:26.952Z,9.90
2018-12-25T13:56:55.421Z,12.10
2018-12-25T13:59:23.771Z,9.10
2018-12-25T14:01:52.133Z,11.57
2018-12-25T14:04:20.516Z,11.27
2018-12-25T14:06:48.889Z,9.53
2018-12-25T14:09:17.272Z,12.90
2018-12-25T14:11:45.644Z,10.73
2018-12-25T14:14:14.020Z,11.00
2018-12-25T14:16:42.400Z,10.77
2018-12-25T14:19:11.097Z,10.83
2018-12-25T14:21:39.477Z,9.37
2018-12-25T14:24:07.845Z,6.20
2018-12-25T14:26:36.213Z,8.83
2018-12-25T14:29:04.582Z,7.73
2018-12-25T14:31:32.956Z,9.97
2018-12-25T14:34:01.321Z,9.63
2018-12-25T14:36:30.039Z,12.03
2018-12-25T14:38:58.411Z,10.33
2018-12-25T14:41:26.789Z,9.47
2018-12-25T14:43:55.153Z,9.60
2018-12-25T14:46:23.549Z,9.40
2018-12-25T14:48:51.914Z,11.83
2018-12-25T14:51:20.359Z,9.13
2018-12-25T14:53:48.742Z,10.97
2018-12-25T14:56:17.123Z,10.07
2018-12-25T14:58:45.513Z,10.97
2018-12-25T15:01:13.897Z,9.67
2018-12-25T15:03:42.295Z,8.90
2018-12-25T15:06:10.710Z,11.57
2018-12-25T15:08:39.084Z,8.50
2018-12-25T15:11:07.449Z,10.73
2018-12-25T15:13:36.065Z,8.37
2018-12-25T15:16:04.455Z,10.70
2018-12-25T15:18:32.834Z,9.90
2018-12-25T15:21:01.212Z,9.03
2018-12-25T15:23:29.611Z,9.57
2018-12-25T15:25:58.028Z,9.40
2018-12-25T15:28:26.710Z,9.90
2018-12-25T15:30:55.074Z,8.40
2018-12-25T15:33:23.478Z,8.10
2018-12-25T15:35:51.843Z,9.53
2018-12-25T15:38:20.216Z,8.60
2018-12-25T15:40:48.588Z,10.43
2018-12-25T15:43:16.961Z,8.27
2018-12-25T15:45:45.463Z,11.10
2018-12-25T15:48:13.832Z,9.33
2018-12-25T15:50:42.221Z,10.37
2018-12-25T15:53:10.590Z,10.70
2018-12-25T15:55:38.974Z,12.33
2018-12-25T15:58:07.716Z,10.83
2018-12-25T16:00:36.096Z,11.77
2018-12-25T16:03:04.468Z,8.70
2018-12-25T16:05:33.785Z,10.60
2018-12-25T16:08:02.155Z,9.17
2018-12-25T16:10:30.560Z,9.63
2018-12-25T16:12:58.936Z,10.57
2018-12-25T16:15:27.307Z,11.23
2018-12-25T16:17:55.697Z,10.50
2018-12-25T16:20:24.384Z,11.00
2018-12-25T16:22:52.768Z,16.10
2018-12-25T16:25:21.143Z,11.83
2018-12-25T16:27:49.525Z,11.20
2018-12-25T16:30:17.899Z,13.30
2018-12-25T16:32:46.279Z,13.80
2018-12-25T16:35:14.659Z,11.30
2018-12-25T16:37:43.344Z,10.43
2018-12-25T16:40:11.715Z,15.47
2018-12-25T16:42:40.106Z,12.73
2018-12-25T16:45:08.499Z,13.57
2018-12-25T16:47:36.946Z,13.20
2018-12-25T16:50:05.696Z,14.93
2018-12-25T16:52:34.068Z,15.80
2018-12-25T16:55:02.449Z,14.23
2018-12-25T16:57:30.817Z,13.13
2018-12-25T16:59:59.471Z,13.57
2018-12-25T17:02:27.854Z,12.03
2018-12-25T17:04:56.235Z,13.20
2018-12-25T17:07:24.614Z,15.03
2018-12-25T17:09:53.087Z,14.80
2018-12-25T17:12:21.497Z,13.93
2018-12-25T17:14:49.886Z,13.40
2018-12-25T17:17:18.320Z,16.17
2018-12-25T17:19:46.716Z,14.23
2018-12-25T17:22:15.157Z,14.37
2018-12-25T17:24:43.538Z,22.13
2018-12-25T17:27:12.856Z,23.00
2018-12-25T17:29:41.244Z,19.77
2018-12-25T17:32:09.622Z,19.33
2018-12-25T17:34:38.020Z,19.17
2018-12-25T17:37:06.410Z,20.60
2018-12-25T17:39:34.777Z,18.77
2018-12-25T17:42:03.178Z,16.10
2018-12-25T17:44:31.542Z,14.03
2018-12-25T17:46:59.928Z,16.50
2018-12-25T17:49:28.305Z,16.07
2018-12-25T17:51:56.686Z,17.30
2018-12-25T17:54:25.057Z,14.97
2018-12-25T17:56:53.513Z,18.83
2018-12-25T17:59:21.846Z,13.97
2018-12-25T18:01:50.224Z,14.27
2018-12-25T18:04:18.629Z,15.33
2018-12-25T18:06:46.978Z,15.83
2018-12-25T18:09:15.367Z,15.50
2018-12-25T18:11:43.770Z,17.63
2018-12-25T18:14:12.149Z,18.90
2018-12-25T18:16:40.530Z,17.77
2018-12-25T18:19:08.908Z,16.47
2018-12-25T18:21:37.297Z,15.50
2018-12-25T18:24:05.677Z,19.40
2018-12-25T18:26:34.096Z,19.37
2018-12-25T18:29:02.479Z,18.47
2018-12-25T18:31:30.868Z,19.03
2018-12-25T18:33:59.249Z,15.37
2018-12-25T18:36:27.621Z,16.70
2018-12-25T18:38:56.082Z,18.03
2018-12-25T18:41:24.460Z,16.43
2018-12-25T18:43:52.853Z,17.77
2018-12-25T18:46:21.221Z,18.83
2018-12-25T18:48:50.629Z,17.23
2018-12-25T18:51:19.016Z,15.17
2018-12-25T18:53:47.400Z,15.73
2018-12-25T18:56:16.017Z,16.13
2018-12-25T18:58:44.421Z,15.77
2018-12-25T19:01:12.776Z,15.00
2018-12-25T19:03:41.164Z,15.00
2018-12-25T19:06:09.547Z,17.83
2018-12-25T19:08:37.952Z,15.73
2018-12-25T19:11:06.330Z,17.73
2018-12-25T19:13:34.714Z,14.97
2018-12-25T19:16:03.634Z,16.90
2018-12-25T19:18:32.016Z,15.27
2018-12-25T19:21:00.386Z,15.03
2018-12-25T19:23:28.778Z,13.97
2018-12-25T19:25:57.151Z,14.60
2018-12-25T19:28:25.523Z,15.73
2018-12-25T19:30:53.933Z,13.70
2018-12-25T19:33:22.316Z,14.77
2018-12-25T19:35:50.694Z,16.27
2018-12-25T19:38:19.069Z,15.53
2018-12-25T19:40:56.360Z,16.73
2018-12-25T19:43:24.729Z,18.10
2018-12-25T19:45:53.356Z,20.43
2018-12-25T19:48:24.834Z,17.13
2018-12-25T19:50:53.222Z,17.17
2018-12-25T19:53:23.575Z,18.50
2018-12-25T19:55:52.035Z,18.03
2018-12-25T19:58:20.424Z,16.90
2018-12-25T20:00:48.833Z,18.87
2018-12-25T20:03:17.280Z,22.20
2018-12-25T20:05:48.723Z,19.40
2018-12-25T20:08:41.090Z,19.53
2018-12-25T20:11:27.421Z,18.17
2018-12-25T20:13:58.853Z,21.10
2018-12-25T20:16:44.667Z,19.80
2018-12-25T20:19:18.744Z,22.43
2018-12-25T20:22:05.011Z,19.33
2018-12-25T20:24:55.766Z,22.03
2018-12-25T20:27:43.590Z,20.43
2018-12-25T20:30:28.331Z,24.60
2018-12-25T20:33:14.553Z,24.43
2018-12-25T20:35:50.619Z,18.67
2018-12-25T20:38:44.689Z,21.10
2018-12-25T20:41:35.418Z,18.53
2018-12-25T20:44:15.055Z,22.50
2018-12-25T20:47:04.449Z,18.67
2018-12-25T20:49:54.083Z,20.60
2018-12-25T20:52:34.309Z,20.40
2018-12-25T20:55:25.456Z,23.40
2018-12-25T20:58:23.975Z,20.73
2018-12-25T21:01:17.286Z,23.30
2018-12-25T21:04:05.412Z,21.53
2018-12-25T21:07:10.311Z,20.47
2018-12-25T21:09:50.556Z,21.63
2018-12-25T21:12:45.435Z,21.40
2018-12-25T21:15:40.941Z,24.70
2018-12-25T21:18:36.565Z,20.53
2018-12-25T21:21:22.992Z,22.90
2018-12-25T21:24:27.738Z,23.67
2018-12-25T21:27:28.869Z,20.70
2018-12-25T21:29:57.700Z,24.83
2018-12-25T21:32:26.567Z,22.93
2018-12-25T21:35:10.050Z,23.23
2018-12-25T21:37:38.596Z,23.77
2018-12-25T21:40:07.557Z,23.03
2018-12-25T21:42:36.535Z,25.27
2018-12-25T21:45:06.446Z,22.97
2018-12-25T21:47:34.976Z,20.20
2018-12-25T21:50:09.397Z,22.37
2018-12-25T21:52:47.083Z,19.10
2018-12-25T21:55:18.948Z,18.23
2018-12-25T21:57:46.608Z,18.77
2018-12-25T22:00:15.008Z,21.73
2018-12-25T22:02:43.619Z,19.80
2018-12-25T22:05:17.744Z,21.20
2018-12-25T22:07:46.127Z,22.63
2018-12-25T22:10:14.524Z,17.83
2018-12-25T22:12:42.900Z,18.73
2018-12-25T22:15:11.562Z,22.37
2018-12-25T22:17:39.953Z,22.83
2018-12-25T22:20:11.376Z,21.57
2018-12-25T22:22:39.759Z,21.67
2018-12-25T22:25:08.132Z,19.67
2018-12-25T22:27:36.521Z,20.20
2018-12-25T22:30:06.343Z,22.43
2018-12-25T22:32:34.732Z,20.07
2018-12-25T22:35:03.403Z,18.57
2018-12-25T22:37:31.820Z,19.67
2018-12-25T22:40:00.203Z,18.83
2018-12-25T22:42:28.575Z,18.47
2018-12-25T22:45:01.202Z,18.13
2018-12-25T22:47:29.587Z,17.20
2018-12-25T22:49:57.963Z,19.30
2018-12-25T22:52:26.331Z,17.33
2018-12-25T22:54:54.714Z,18.63
2018-12-25T22:57:23.176Z,17.60
2018-12-25T22:59:51.555Z,17.37
2018-12-25T23:02:21.890Z,19.27
2018-12-25T23:04:50.269Z,17.03
2018-12-25T23:07:18.645Z,17.60
2018-12-25T23:09:47.070Z,21.77
2018-12-25T23:12:15.442Z,19.13
2018-12-25T23:14:43.826Z,20.77
2018-12-25T23:17:12.374Z,20.27
2018-12-25T23:19:41.393Z,24.70
2018-12-25T23:22:10.885Z,21.87
2018-12-25T23:24:39.258Z,18.67
2018-12-25T23:27:07.630Z,19.87
2018-12-25T23:29:36.008Z,17.67
2018-12-25T23:32:04.403Z,17.97
2018-12-25T23:34:32.784Z,18.20
2018-12-25T23:37:01.168Z,18.90
2018-12-25T23:39:29.592Z,18.70
2018-12-25T23:41:59.469Z,19.80
2018-12-25T23:44:27.979Z,19.07
2018-12-25T23:46:56.363Z,20.03
2018-12-25T23:49:24.766Z,19.13
2018-12-25T23:51:53.151Z,18.67
2018-12-25T23:54:21.533Z,18.00
2018-12-25T23:56:49.943Z,21.43
2018-12-25T23:59:18.625Z,18.03
